Airport View

Enter AWOS ICAO identifier for current METAR.

ex. KFNL

K4A6 251055Z AUTO 00000KT 2SM BR OVC003 17/17 A2996 RMK AO2

25 Oct 2020 11:05

Frequency: 120.125

Phone: (256) 259-1148

Other Area AWOS: K4A9 - KMDQ - KBGF - K8A0

TAF AMD KHSV 250759Z 2508/2606 01003KT 6SM BR OVC006 FM251500 01003KT 4SM BR OVC006 FM251700 33003KT P6SM OVC010